Kitanomaru — JD2835 — position and weather

sailwx.info

Track history (hours):
 
Tides and Currents Weather Stations Pressure Air Temp Water Temp Dewpoint Dewpoint Depression Visibility Wind Speed Wind Dir Waves Ship Positions

Kitanomaru

Last reported at 2017-Apr-24 01:00 UTC. Time now 2017-Apr-24 13:19 UTC.
Position N 35°31' E 139°55'.

Length 39 m; draft 4 m.

Type: Tug. MMSI: 431000773.

Date/timePositionNaut miles runAvg speedWind from/ knotsBaromVisibWave heightAir tempDewpointWater temp
2017-Apr-24 01:00N 35°31' E 139°55'1 1.1
2017-Apr-24 00:30N 35°31' E 139°56'1 0.4
2017-Apr-23 22:10N 35°31' E 139°57'2 0.1
2017-Apr-23 04:32N 35°33' E 139°58'0 9.7
2017-Apr-23 04:30N 35°32' E 139°58'2 3.4
2017-Apr-23 04:00N 35°32' E 139°56'1 0.3
2017-Apr-23 01:59N 35°32' E 139°57'4 7.4
2017-Apr-23 01:30N 35°29' E 139°58'0 0.0
2017-Apr-22 10:14N 35°29' E 139°57'3 0.4
2017-Apr-22 00:28N 35°32' E 139°57'4 0.2
2017-Apr-21 07:24N 35°30' E 140°01'1 0.3
2017-Apr-21 05:12N 35°30' E 140°01'1 5.0
2017-Apr-21 05:00N 35°31' E 140°00'4 5.5
2017-Apr-21 04:19N 35°34' E 139°57'0 0.5
2017-Apr-21 04:00N 35°34' E 139°57'0 0.6
2017-Apr-21 03:18N 35°34' E 139°57'2 2.2
2017-Apr-21 02:27N 35°32' E 139°57'2 0.1
2017-Apr-20 04:32N 35°30' E 139°57'0 0.0
2017-Apr-20 04:30N 35°30' E 139°57'0 0.0
2017-Apr-20 03:58N 35°30' E 139°57'1 2.0
2017-Apr-20 03:30N 35°31' E 139°56'0 0.0
2017-Apr-20 03:00N 35°31' E 139°56'0 0.0
2017-Apr-20 02:23N 35°31' E 139°56'0 0.2
2017-Apr-20 01:55N 35°31' E 139°56'1 1.3
2017-Apr-20 01:29N 35°30' E 139°56'2 4.4
2017-Apr-20 01:00N 35°30' E 139°53'1 1.6
2017-Apr-20 00:29N 35°30' E 139°54'1 0.7
2017-Apr-19 23:10N 35°29' E 139°54'3 3.0
2017-Apr-19 22:05N 35°27' E 139°58'0 1.9
2017-Apr-19 22:00N 35°28' E 139°58'3 5.7
2017-Apr-19 21:27N 35°31' E 139°57'1 0.1
2017-Apr-19 06:41N 35°32' E 139°57'1 3.5
2017-Apr-19 06:30N 35°32' E 139°56'0 0.2
2017-Apr-19 06:00N 35°32' E 139°56'1 1.5
2017-Apr-19 05:30N 35°32' E 139°57'4 1.3
2017-Apr-19 02:26N 35°30' E 140°01'0 0.0
2017-Apr-19 01:43N 35°30' E 140°01'0 0.1
2017-Apr-19 01:19N 35°30' E 140°01'0 0.2
2017-Apr-19 00:59N 35°30' E 140°01'0 1.0
2017-Apr-19 00:30N 35°30' E 140°01'2 4.6
2017-Apr-19 00:00N 35°32' E 139°59'2 2.6
2017-Apr-18 23:26N 35°33' E 139°58'4 0.1
2017-Apr-17 07:26N 35°30' E 139°59'1 2.0
2017-Apr-17 06:46N 35°29' E 140°00'8 1.3
2017-Apr-17 00:49N 35°35' E 140°06'0 0.8
2017-Apr-17 00:30N 35°35' E 140°07'0 0.0
2017-Apr-16 23:59N 35°35' E 140°07'1 0.8
2017-Apr-16 22:39N 35°36' E 140°07'0 0.0
2017-Apr-16 22:29N 35°36' E 140°07'0 0.0
2017-Apr-16 22:00N 35°36' E 140°07'0 0.0
2017-Apr-16 21:30N 35°36' E 140°07'0 0.0
2017-Apr-16 21:00N 35°36' E 140°07'0 0.0
2017-Apr-16 20:30N 35°36' E 140°07'0 0.0
2017-Apr-16 20:00N 35°36' E 140°07'0 0.0
2017-Apr-16 19:30N 35°36' E 140°07'0 0.0
2017-Apr-16 19:00N 35°36' E 140°07'0 0.0
2017-Apr-16 18:30N 35°36' E 140°07'0 0.0
2017-Apr-16 18:00N 35°36' E 140°07'8 0.5
2017-Apr-16 01:37N 35°30' E 140°01'0 0.0
2017-Apr-16 01:26N 35°30' E 140°01'0 0.0
2017-Apr-16 01:00N 35°30' E 140°01'0 0.9
2017-Apr-16 00:28N 35°30' E 140°01'1 0.4
2017-Apr-15 21:50N 35°31' E 140°01'6 7.4
2017-Apr-15 21:00N 35°35' E 140°07'0 0.2
2017-Apr-15 20:30N 35°36' E 140°07'3 0.1
2017-Apr-15 00:37N 35°33' E 140°05'3 1.8
2017-Apr-14 22:51N 35°31' E 140°02'4 0.3
2017-Apr-14 05:31N 35°35' E 140°05'0 0.3
2017-Apr-14 05:30N 35°35' E 140°05'4 3.3
2017-Apr-14 04:12N 35°31' E 140°02'0 0.1
2017-Apr-14 04:00N 35°31' E 140°02'  
Track history (hours):
 
Tides and Currents Weather Stations Pressure Air Temp Water Temp Dewpoint Dewpoint Depression Visibility Wind Speed Wind Dir Waves Ship Positions

Kitanomaru

Last reported at 2017-Apr-24 01:00 UTC. Time now 2017-Apr-24 13:19 UTC.
Position N 35°31' E 139°55'.

Length 39 m; draft 4 m.

Type: Tug. MMSI: 431000773.

Date/timePositionNaut miles runAvg speedWind from/ knotsBaromVisibWave heightAir tempDewpointWater temp
2017-Apr-24 01:00N 35°31' E 139°55'1 1.1
2017-Apr-24 00:30N 35°31' E 139°56'1 0.4
2017-Apr-23 22:10N 35°31' E 139°57'2 0.1
2017-Apr-23 04:32N 35°33' E 139°58'0 9.7
2017-Apr-23 04:30N 35°32' E 139°58'2 3.4
2017-Apr-23 04:00N 35°32' E 139°56'1 0.3
2017-Apr-23 01:59N 35°32' E 139°57'4 7.4
2017-Apr-23 01:30N 35°29' E 139°58'0 0.0
2017-Apr-22 10:14N 35°29' E 139°57'3 0.4
2017-Apr-22 00:28N 35°32' E 139°57'4 0.2
2017-Apr-21 07:24N 35°30' E 140°01'1 0.3
2017-Apr-21 05:12N 35°30' E 140°01'1 5.0
2017-Apr-21 05:00N 35°31' E 140°00'4 5.5
2017-Apr-21 04:19N 35°34' E 139°57'0 0.5
2017-Apr-21 04:00N 35°34' E 139°57'0 0.6
2017-Apr-21 03:18N 35°34' E 139°57'2 2.2
2017-Apr-21 02:27N 35°32' E 139°57'2 0.1
2017-Apr-20 04:32N 35°30' E 139°57'0 0.0
2017-Apr-20 04:30N 35°30' E 139°57'0 0.0
2017-Apr-20 03:58N 35°30' E 139°57'1 2.0
2017-Apr-20 03:30N 35°31' E 139°56'0 0.0
2017-Apr-20 03:00N 35°31' E 139°56'0 0.0
2017-Apr-20 02:23N 35°31' E 139°56'0 0.2
2017-Apr-20 01:55N 35°31' E 139°56'1 1.3
2017-Apr-20 01:29N 35°30' E 139°56'2 4.4
2017-Apr-20 01:00N 35°30' E 139°53'1 1.6
2017-Apr-20 00:29N 35°30' E 139°54'1 0.7
2017-Apr-19 23:10N 35°29' E 139°54'3 3.0
2017-Apr-19 22:05N 35°27' E 139°58'0 1.9
2017-Apr-19 22:00N 35°28' E 139°58'3 5.7
2017-Apr-19 21:27N 35°31' E 139°57'1 0.1
2017-Apr-19 06:41N 35°32' E 139°57'1 3.5
2017-Apr-19 06:30N 35°32' E 139°56'0 0.2
2017-Apr-19 06:00N 35°32' E 139°56'1 1.5
2017-Apr-19 05:30N 35°32' E 139°57'4 1.3
2017-Apr-19 02:26N 35°30' E 140°01'0 0.0
2017-Apr-19 01:43N 35°30' E 140°01'0 0.1
2017-Apr-19 01:19N 35°30' E 140°01'0 0.2
2017-Apr-19 00:59N 35°30' E 140°01'0 1.0
2017-Apr-19 00:30N 35°30' E 140°01'2 4.6
2017-Apr-19 00:00N 35°32' E 139°59'2 2.6
2017-Apr-18 23:26N 35°33' E 139°58'4 0.1
2017-Apr-17 07:26N 35°30' E 139°59'1 2.0
2017-Apr-17 06:46N 35°29' E 140°00'8 1.3
2017-Apr-17 00:49N 35°35' E 140°06'0 0.8
2017-Apr-17 00:30N 35°35' E 140°07'0 0.0
2017-Apr-16 23:59N 35°35' E 140°07'1 0.8
2017-Apr-16 22:39N 35°36' E 140°07'0 0.0
2017-Apr-16 22:29N 35°36' E 140°07'0 0.0
2017-Apr-16 22:00N 35°36' E 140°07'0 0.0
2017-Apr-16 21:30N 35°36' E 140°07'0 0.0
2017-Apr-16 21:00N 35°36' E 140°07'0 0.0
2017-Apr-16 20:30N 35°36' E 140°07'0 0.0
2017-Apr-16 20:00N 35°36' E 140°07'0 0.0
2017-Apr-16 19:30N 35°36' E 140°07'0 0.0
2017-Apr-16 19:00N 35°36' E 140°07'0 0.0
2017-Apr-16 18:30N 35°36' E 140°07'0 0.0
2017-Apr-16 18:00N 35°36' E 140°07'8 0.5
2017-Apr-16 01:37N 35°30' E 140°01'0 0.0
2017-Apr-16 01:26N 35°30' E 140°01'0 0.0
2017-Apr-16 01:00N 35°30' E 140°01'0 0.9
2017-Apr-16 00:28N 35°30' E 140°01'1 0.4
2017-Apr-15 21:50N 35°31' E 140°01'6 7.4
2017-Apr-15 21:00N 35°35' E 140°07'0 0.2
2017-Apr-15 20:30N 35°36' E 140°07'3 0.1
2017-Apr-15 00:37N 35°33' E 140°05'3 1.8
2017-Apr-14 22:51N 35°31' E 140°02'4 0.3
2017-Apr-14 05:31N 35°35' E 140°05'0 0.3
2017-Apr-14 05:30N 35°35' E 140°05'4 3.3
2017-Apr-14 04:12N 35°31' E 140°02'0 0.1
2017-Apr-14 04:00N 35°31' E 140°02'  

Dump ship's entire track history